createdAt,value
2022-11-05T00:01:02.014Z,5.69
2022-11-05T00:03:47.481Z,5.69
2022-11-05T00:06:34.208Z,5.74
2022-11-05T00:09:19.784Z,5.73
2022-11-05T00:12:05.253Z,5.82
2022-11-05T00:14:50.887Z,5.88
2022-11-05T00:17:18.840Z,5.85
2022-11-05T00:19:46.790Z,5.88
2022-11-05T00:22:33.642Z,5.83
2022-11-05T00:25:20.178Z,5.87
2022-11-05T00:27:49.683Z,5.92
2022-11-05T00:30:20.189Z,5.95
2022-11-05T00:32:49.502Z,5.92
2022-11-05T00:35:18.702Z,5.92
2022-11-05T00:37:50.292Z,5.98
2022-11-05T00:40:18.852Z,6.01
2022-11-05T00:43:04.402Z,6.00
2022-11-05T00:45:32.698Z,6.03
2022-11-05T00:48:17.929Z,6.05
2022-11-05T00:50:45.892Z,6.03
2022-11-05T00:53:15.167Z,6.05
2022-11-05T00:55:45.082Z,6.00
2022-11-05T00:58:15.604Z,5.97
2022-11-05T01:00:45.696Z,5.83
2022-11-05T01:03:16.029Z,5.84
2022-11-05T01:05:45.759Z,5.83
2022-11-05T01:08:16.625Z,5.77
2022-11-05T01:10:46.311Z,5.81
2022-11-05T01:13:17.747Z,5.74
2022-11-05T01:15:46.829Z,5.70
2022-11-05T01:18:14.996Z,5.73
2022-11-05T01:20:42.981Z,5.68
2022-11-05T01:23:13.751Z,5.61
2022-11-05T01:25:43.460Z,5.56
2022-11-05T01:28:11.627Z,5.52
2022-11-05T01:30:39.857Z,5.44
2022-11-05T01:33:08.085Z,5.32
2022-11-05T01:35:36.185Z,5.37
2022-11-05T01:38:04.196Z,5.27
2022-11-05T01:40:32.194Z,5.21
2022-11-05T01:43:01.523Z,5.04
2022-11-05T01:45:30.311Z,4.92
2022-11-05T01:48:04.266Z,4.86
2022-11-05T01:50:38.315Z,4.78
2022-11-05T01:53:13.204Z,4.78
2022-11-05T01:55:45.090Z,4.69
2022-11-05T01:58:19.411Z,4.58
2022-11-05T02:00:47.944Z,4.51
2022-11-05T02:03:18.032Z,4.57
2022-11-05T02:05:47.372Z,4.54
2022-11-05T02:08:22.936Z,4.51
2022-11-05T02:10:51.605Z,4.52
2022-11-05T02:13:20.920Z,4.55
2022-11-05T02:15:59.168Z,4.61
2022-11-05T02:18:41.052Z,4.78
2022-11-05T02:21:34.412Z,4.76
2022-11-05T02:24:37.702Z,4.78
2022-11-05T02:27:17.230Z,4.81
2022-11-05T02:30:13.517Z,4.85
2022-11-05T02:33:00.671Z,4.91
2022-11-05T02:35:41.070Z,4.90
2022-11-05T02:38:14.069Z,4.89
2022-11-05T02:40:51.485Z,4.90
2022-11-05T02:43:26.983Z,4.90
2022-11-05T02:46:05.639Z,4.90
2022-11-05T02:48:46.786Z,4.91
2022-11-05T02:51:24.431Z,4.91
2022-11-05T02:53:59.250Z,4.90
2022-11-05T02:56:32.247Z,4.89
2022-11-05T02:59:00.200Z,4.89
2022-11-05T03:01:28.257Z,4.86
2022-11-05T03:04:00.564Z,4.85
2022-11-05T03:07:05.324Z,4.86
2022-11-05T03:09:48.416Z,4.66
2022-11-05T03:12:25.930Z,4.85
2022-11-05T03:15:04.103Z,4.83
2022-11-05T03:17:42.904Z,4.84
2022-11-05T03:20:20.605Z,4.82
2022-11-05T03:22:55.470Z,4.82
2022-11-05T03:25:27.682Z,4.77
2022-11-05T03:27:59.728Z,4.74
2022-11-05T03:30:27.912Z,4.72
2022-11-05T03:33:00.520Z,4.63
2022-11-05T03:35:32.798Z,4.69
2022-11-05T03:38:04.607Z,4.65
2022-11-05T03:40:35.969Z,4.61
2022-11-05T03:43:08.799Z,4.61
2022-11-05T03:45:39.660Z,4.67
2022-11-05T03:48:11.108Z,4.62
2022-11-05T03:50:46.032Z,4.63
2022-11-05T03:53:17.240Z,4.59
2022-11-05T03:55:52.228Z,4.67
2022-11-05T03:58:23.098Z,4.66
2022-11-05T04:00:52.203Z,4.60
2022-11-05T04:03:20.333Z,4.63
2022-11-05T04:06:10.269Z,4.56
2022-11-05T04:08:55.630Z,4.56
2022-11-05T04:11:41.185Z,4.58
2022-11-05T04:14:09.174Z,4.51
2022-11-05T04:16:54.650Z,4.46
2022-11-05T04:19:36.510Z,4.42
2022-11-05T04:22:23.535Z,4.46
2022-11-05T04:24:51.491Z,4.41
2022-11-05T04:27:19.507Z,4.34
2022-11-05T04:30:05.087Z,4.40
2022-11-05T04:32:33.091Z,4.38
2022-11-05T04:35:01.019Z,4.34
2022-11-05T04:37:30.398Z,4.29
2022-11-05T04:39:58.330Z,4.27
2022-11-05T04:42:26.278Z,4.25
2022-11-05T04:44:54.296Z,4.24
2022-11-05T04:47:22.250Z,4.27
2022-11-05T04:49:50.313Z,4.26
2022-11-05T04:52:18.332Z,4.28
2022-11-05T04:54:47.729Z,4.34
2022-11-05T04:57:15.720Z,4.35
2022-11-05T04:59:43.688Z,4.26
2022-11-05T05:02:11.692Z,4.32
2022-11-05T05:04:39.843Z,4.32
2022-11-05T05:07:07.773Z,4.27
2022-11-05T05:09:35.763Z,4.29
2022-11-05T05:12:05.281Z,4.29
2022-11-05T05:14:33.204Z,4.35
2022-11-05T05:17:01.375Z,4.30
2022-11-05T05:19:29.543Z,4.25
2022-11-05T05:21:56.460Z,4.27
2022-11-05T05:24:25.028Z,4.28
2022-11-05T05:26:53.010Z,4.26
2022-11-05T05:29:22.320Z,4.26
2022-11-05T05:31:50.288Z,4.31
2022-11-05T05:34:18.220Z,4.28
2022-11-05T05:36:46.219Z,4.29
2022-11-05T05:39:14.186Z,4.32
2022-11-05T05:41:42.103Z,4.32
2022-11-05T05:44:10.092Z,4.29
2022-11-05T05:46:39.546Z,4.15
2022-11-05T05:49:12.141Z,4.22
2022-11-05T05:51:40.898Z,4.20
2022-11-05T05:54:11.366Z,4.27
2022-11-05T05:56:39.294Z,4.19
2022-11-05T05:59:07.470Z,4.21
2022-11-05T06:01:35.591Z,4.19
2022-11-05T06:04:05.390Z,4.17
2022-11-05T06:06:33.582Z,4.14
2022-11-05T06:09:01.543Z,4.13
2022-11-05T06:11:29.662Z,4.09
2022-11-05T06:13:57.731Z,4.13
2022-11-05T06:16:25.685Z,4.10
2022-11-05T06:18:53.702Z,4.07
2022-11-05T06:21:23.160Z,4.06
2022-11-05T06:23:51.079Z,4.08
2022-11-05T06:26:20.083Z,4.09
2022-11-05T06:28:48.174Z,4.09
2022-11-05T06:31:16.476Z,4.14
2022-11-05T06:33:44.715Z,4.18
2022-11-05T06:36:15.843Z,4.04
2022-11-05T06:38:45.236Z,4.01
2022-11-05T06:41:13.376Z,4.09
2022-11-05T06:43:41.388Z,4.11
2022-11-05T06:46:11.131Z,4.05
2022-11-05T06:48:39.819Z,4.08
2022-11-05T06:51:08.940Z,4.12
2022-11-05T06:53:37.095Z,4.17
2022-11-05T06:56:08.157Z,4.14
2022-11-05T06:58:36.481Z,4.14
2022-11-05T07:01:07.816Z,4.17
2022-11-05T07:03:36.550Z,4.18
2022-11-05T07:06:06.331Z,4.20
2022-11-05T07:08:35.494Z,4.24
2022-11-05T07:11:03.747Z,4.21
2022-11-05T07:13:33.428Z,4.22
2022-11-05T07:16:01.394Z,4.22
2022-11-05T07:18:29.372Z,4.24
2022-11-05T07:20:57.294Z,4.24
2022-11-05T07:23:25.380Z,4.29
2022-11-05T07:25:53.547Z,4.34
2022-11-05T07:28:21.495Z,4.36
2022-11-05T07:30:50.788Z,4.42
2022-11-05T07:33:18.771Z,4.50
2022-11-05T07:35:46.908Z,4.55
2022-11-05T07:38:14.828Z,4.56
2022-11-05T07:40:42.807Z,4.62
2022-11-05T07:43:10.970Z,4.63
2022-11-05T07:45:39.187Z,4.65
2022-11-05T07:48:08.866Z,4.67
2022-11-05T07:50:38.062Z,4.73
2022-11-05T07:53:07.774Z,4.75
2022-11-05T07:55:35.942Z,4.77
2022-11-05T07:58:04.882Z,4.82
2022-11-05T08:00:33.905Z,4.87
2022-11-05T08:03:07.904Z,4.93
2022-11-05T08:05:39.905Z,5.01
2022-11-05T08:08:09.195Z,5.04
2022-11-05T08:10:37.920Z,5.11
2022-11-05T08:13:06.971Z,5.19
2022-11-05T08:15:35.540Z,5.26
2022-11-05T08:18:05.928Z,5.32
2022-11-05T08:20:34.640Z,5.36
2022-11-05T08:23:04.012Z,5.42
2022-11-05T08:25:32.745Z,5.50
2022-11-05T08:28:02.307Z,5.59
2022-11-05T08:30:31.332Z,5.69
2022-11-05T08:33:00.620Z,5.73
2022-11-05T08:35:29.536Z,5.76
2022-11-05T08:37:59.161Z,5.81
2022-11-05T08:40:28.638Z,5.85
2022-11-05T08:42:57.731Z,5.89
2022-11-05T08:45:25.839Z,5.95
2022-11-05T08:47:59.859Z,5.98
2022-11-05T08:50:27.943Z,6.07
2022-11-05T08:52:55.928Z,6.12
2022-11-05T08:55:24.111Z,6.16
2022-11-05T08:57:57.647Z,6.24
2022-11-05T09:00:26.092Z,6.29
2022-11-05T09:02:54.029Z,6.37
2022-11-05T09:05:22.477Z,6.42
2022-11-05T09:07:50.443Z,6.47
2022-11-05T09:10:29.981Z,6.54
2022-11-05T09:12:59.317Z,6.59
2022-11-05T09:15:27.580Z,6.58
2022-11-05T09:17:56.369Z,6.74
2022-11-05T09:20:24.844Z,6.82
2022-11-05T09:22:53.038Z,6.90
2022-11-05T09:25:21.035Z,6.94
2022-11-05T09:27:48.952Z,7.02
2022-11-05T09:30:18.476Z,7.04
2022-11-05T09:32:46.451Z,7.13
2022-11-05T09:35:14.453Z,7.25
2022-11-05T09:37:42.409Z,7.30
2022-11-05T09:40:17.428Z,7.33
2022-11-05T09:42:47.227Z,7.26
2022-11-05T09:45:21.209Z,7.42
2022-11-05T09:47:52.364Z,7.48
2022-11-05T09:50:24.048Z,7.53
2022-11-05T09:52:52.151Z,7.59
2022-11-05T09:55:24.619Z,7.61
2022-11-05T09:57:59.357Z,7.76
2022-11-05T10:00:29.998Z,7.79
2022-11-05T10:03:02.068Z,7.83
2022-11-05T10:05:31.046Z,7.91
2022-11-05T10:08:03.972Z,7.97
2022-11-05T10:10:41.094Z,8.04
2022-11-05T10:13:19.354Z,8.08
2022-11-05T10:15:56.587Z,8.14
2022-11-05T10:18:29.182Z,8.25
2022-11-05T10:20:57.840Z,8.27
2022-11-05T10:23:28.750Z,8.28
2022-11-05T10:25:59.963Z,8.34
2022-11-05T10:28:29.991Z,8.44
2022-11-05T10:31:01.859Z,8.53
2022-11-05T10:33:34.480Z,8.34
2022-11-05T10:36:06.774Z,8.58
2022-11-05T10:38:35.002Z,8.62
2022-11-05T10:41:20.739Z,8.73
2022-11-05T10:43:51.541Z,8.73
2022-11-05T10:46:33.488Z,8.78
2022-11-05T10:49:31.476Z,8.92
2022-11-05T10:52:04.384Z,9.03
2022-11-05T10:54:36.164Z,9.09
2022-11-05T10:57:34.153Z,9.13
2022-11-05T11:00:25.943Z,9.19
2022-11-05T11:02:57.964Z,9.24
2022-11-05T11:05:29.540Z,9.14
2022-11-05T11:08:03.591Z,9.28
2022-11-05T11:10:35.691Z,9.23
2022-11-05T11:13:04.046Z,9.28
2022-11-05T11:15:35.040Z,9.27
2022-11-05T11:18:26.691Z,9.42
2022-11-05T11:20:54.840Z,9.48
2022-11-05T11:23:22.864Z,9.51
2022-11-05T11:25:53.810Z,9.50
2022-11-05T11:28:26.802Z,9.48
2022-11-05T11:31:04.448Z,9.51
2022-11-05T11:33:35.064Z,9.53
2022-11-05T11:36:03.600Z,9.59
2022-11-05T11:38:34.208Z,9.59
2022-11-05T11:41:10.158Z,9.62
2022-11-05T11:43:41.020Z,9.67
2022-11-05T11:46:16.110Z,9.55
2022-11-05T11:48:47.609Z,9.75
2022-11-05T11:51:22.501Z,9.72
2022-11-05T11:53:50.723Z,9.74
2022-11-05T11:56:20.937Z,9.76
2022-11-05T11:58:50.968Z,9.69
2022-11-05T12:01:46.238Z,9.69
2022-11-05T12:04:55.027Z,9.72
2022-11-05T12:07:37.136Z,9.75
2022-11-05T12:10:31.136Z,9.78
2022-11-05T12:13:15.649Z,9.81
2022-11-05T12:15:50.643Z,9.80
2022-11-05T12:18:26.605Z,9.83
2022-11-05T12:21:08.883Z,9.71
2022-11-05T12:24:08.529Z,9.86
2022-11-05T12:26:46.275Z,9.88
2022-11-05T12:29:35.782Z,9.84
2022-11-05T12:32:48.817Z,9.92
2022-11-05T12:35:35.763Z,9.94
2022-11-05T12:38:16.337Z,10.01
2022-11-05T12:40:54.341Z,10.05
2022-11-05T12:43:32.118Z,10.05
2022-11-05T12:46:10.049Z,10.10
2022-11-05T12:48:56.760Z,10.03
2022-11-05T12:51:38.154Z,10.07
2022-11-05T12:54:21.537Z,10.02
2022-11-05T12:56:54.158Z,9.97
2022-11-05T12:59:25.590Z,9.86
2022-11-05T13:01:58.661Z,9.96
2022-11-05T13:04:34.944Z,10.01
2022-11-05T13:07:06.764Z,10.04
2022-11-05T13:09:41.296Z,10.12
2022-11-05T13:12:13.912Z,10.15
2022-11-05T13:14:49.446Z,10.21
2022-11-05T13:17:21.085Z,10.29
2022-11-05T13:19:53.345Z,10.36
2022-11-05T13:22:32.250Z,10.37
2022-11-05T13:25:06.276Z,10.43
2022-11-05T13:27:47.929Z,10.47
2022-11-05T13:30:19.631Z,10.44
2022-11-05T13:32:52.852Z,10.41
2022-11-05T13:35:26.361Z,10.49
2022-11-05T13:38:17.332Z,10.47
2022-11-05T13:40:59.226Z,10.43
2022-11-05T13:43:41.140Z,10.36
2022-11-05T13:46:29.308Z,10.41
2022-11-05T13:49:20.882Z,10.43
2022-11-05T13:51:52.936Z,10.47
2022-11-05T13:54:59.081Z,10.49
2022-11-05T13:57:49.156Z,10.44
2022-11-05T14:00:20.143Z,10.39
2022-11-05T14:02:52.355Z,10.43
2022-11-05T14:05:29.278Z,10.43
2022-11-05T14:07:59.223Z,10.34
2022-11-05T14:10:33.177Z,10.42
2022-11-05T14:13:17.380Z,10.38
2022-11-05T14:15:57.747Z,10.34
2022-11-05T14:18:44.400Z,10.37
2022-11-05T14:21:49.719Z,10.42
2022-11-05T14:24:43.122Z,10.44
2022-11-05T14:27:49.258Z,10.52
2022-11-05T14:30:44.886Z,10.54
2022-11-05T14:33:19.016Z,10.56
2022-11-05T14:35:46.959Z,10.43
2022-11-05T14:38:21.312Z,10.31
2022-11-05T14:40:50.610Z,10.33
2022-11-05T14:43:22.628Z,10.30
2022-11-05T14:45:58.297Z,10.24
2022-11-05T14:48:35.714Z,10.10
2022-11-05T14:51:10.786Z,10.02
2022-11-05T14:53:41.338Z,9.91
2022-11-05T14:56:13.174Z,9.82
2022-11-05T14:58:42.524Z,9.72
2022-11-05T15:01:53.757Z,9.66
2022-11-05T15:04:28.048Z,9.61
2022-11-05T15:07:29.429Z,9.56
2022-11-05T15:10:07.222Z,9.50
2022-11-05T15:12:41.367Z,9.46
2022-11-05T15:15:22.180Z,9.46
2022-11-05T15:18:01.890Z,9.41
2022-11-05T15:20:40.142Z,9.37
2022-11-05T15:23:13.150Z,9.32
2022-11-05T15:25:53.141Z,9.30
2022-11-05T15:28:28.643Z,9.26
2022-11-05T15:30:59.287Z,9.17
2022-11-05T15:33:28.877Z,9.13
2022-11-05T15:35:57.581Z,9.12
2022-11-05T15:38:31.446Z,9.07
2022-11-05T15:41:01.563Z,9.02
2022-11-05T15:43:30.195Z,8.99
2022-11-05T15:46:03.921Z,8.96
2022-11-05T15:48:34.040Z,8.93
2022-11-05T15:51:02.345Z,8.91
2022-11-05T15:54:02.218Z,8.88
2022-11-05T15:56:30.136Z,8.85
2022-11-05T15:59:02.273Z,8.83
2022-11-05T16:01:32.957Z,8.81
2022-11-05T16:04:12.147Z,8.79
2022-11-05T16:06:44.047Z,8.78
2022-11-05T16:09:23.700Z,8.77
2022-11-05T16:12:12.253Z,8.74
2022-11-05T16:14:40.304Z,8.73
2022-11-05T16:17:18.005Z,8.72
2022-11-05T16:19:48.438Z,8.71
2022-11-05T16:22:16.859Z,8.72
2022-11-05T16:24:45.470Z,8.72
2022-11-05T16:27:19.451Z,8.71
2022-11-05T16:29:55.536Z,8.65
2022-11-05T16:32:30.632Z,8.69
2022-11-05T16:35:03.039Z,8.66
2022-11-05T16:37:39.696Z,8.61
2022-11-05T16:40:14.757Z,8.58
2022-11-05T16:42:43.295Z,8.58
2022-11-05T16:45:13.937Z,8.59
2022-11-05T16:47:43.066Z,8.57
2022-11-05T16:50:17.208Z,8.54
2022-11-05T16:52:46.178Z,8.52
2022-11-05T16:55:14.972Z,8.53
2022-11-05T16:57:44.608Z,8.51
2022-11-05T17:00:16.291Z,8.49
2022-11-05T17:02:45.227Z,8.48
2022-11-05T17:05:22.008Z,8.46
2022-11-05T17:07:50.049Z,8.44
2022-11-05T17:10:18.483Z,8.37
2022-11-05T17:12:46.931Z,8.40
2022-11-05T17:15:20.642Z,8.35
2022-11-05T17:17:49.162Z,8.38
2022-11-05T17:20:27.487Z,8.37
2022-11-05T17:22:55.564Z,8.36
2022-11-05T17:25:24.082Z,8.33
2022-11-05T17:27:52.455Z,8.32
2022-11-05T17:30:20.991Z,8.28
2022-11-05T17:32:48.981Z,8.27
2022-11-05T17:35:17.535Z,8.21
2022-11-05T17:37:47.409Z,8.18
2022-11-05T17:40:17.405Z,8.19
2022-11-05T17:42:45.913Z,8.07
2022-11-05T17:45:14.578Z,8.11
2022-11-05T17:47:43.373Z,8.12
2022-11-05T17:50:13.394Z,8.07
2022-11-05T17:52:41.551Z,8.09
2022-11-05T17:55:16.681Z,8.09
2022-11-05T17:57:46.199Z,8.05
2022-11-05T18:00:15.765Z,8.09
2022-11-05T18:02:43.863Z,8.11
2022-11-05T18:05:12.245Z,8.14
2022-11-05T18:07:40.307Z,8.14
2022-11-05T18:10:10.111Z,8.17
2022-11-05T18:12:38.448Z,8.16
2022-11-05T18:15:08.316Z,8.22
2022-11-05T18:17:36.659Z,8.25
2022-11-05T18:20:07.223Z,8.29
2022-11-05T18:22:35.316Z,8.17
2022-11-05T18:25:05.169Z,8.24
2022-11-05T18:27:35.144Z,8.23
2022-11-05T18:30:03.725Z,8.23
2022-11-05T18:32:31.811Z,8.23
2022-11-05T18:34:59.843Z,8.24
2022-11-05T18:37:27.871Z,8.21
2022-11-05T18:39:55.844Z,8.18
2022-11-05T18:42:24.580Z,8.17
2022-11-05T18:44:53.845Z,8.17
2022-11-05T18:47:21.799Z,8.12
2022-11-05T18:49:49.837Z,8.11
2022-11-05T18:52:17.789Z,8.11
2022-11-05T18:54:45.886Z,8.08
2022-11-05T18:57:13.853Z,8.10
2022-11-05T18:59:46.608Z,8.09
2022-11-05T19:02:16.505Z,8.08
2022-11-05T19:05:00.682Z,8.04
2022-11-05T19:07:33.222Z,8.05
2022-11-05T19:10:01.224Z,8.02
2022-11-05T19:12:29.241Z,8.01
2022-11-05T19:15:02.158Z,8.03
2022-11-05T19:17:33.297Z,7.98
2022-11-05T19:20:01.406Z,7.98
2022-11-05T19:22:29.489Z,7.90
2022-11-05T19:24:57.448Z,7.98
2022-11-05T19:27:25.707Z,7.96
2022-11-05T19:29:53.734Z,7.93
2022-11-05T19:32:21.945Z,7.95
2022-11-05T19:34:51.274Z,7.91
2022-11-05T19:37:19.921Z,7.91
2022-11-05T19:39:47.939Z,7.80
2022-11-05T19:42:15.895Z,7.92
2022-11-05T19:44:44.478Z,7.93
2022-11-05T19:47:12.410Z,7.92
2022-11-05T19:49:40.340Z,7.91
2022-11-05T19:52:09.728Z,7.93
2022-11-05T19:54:38.603Z,7.91
2022-11-05T19:57:06.653Z,7.92
2022-11-05T19:59:34.729Z,7.90
2022-11-05T20:02:02.816Z,7.85
2022-11-05T20:04:31.248Z,7.91
2022-11-05T20:06:59.620Z,7.88
2022-11-05T20:09:29.173Z,7.91
2022-11-05T20:11:57.417Z,7.93
2022-11-05T20:14:26.733Z,7.91
2022-11-05T20:16:55.415Z,7.94
2022-11-05T20:19:24.046Z,7.92
2022-11-05T20:21:52.376Z,7.92
2022-11-05T20:24:25.296Z,7.89
2022-11-05T20:26:56.772Z,7.88
2022-11-05T20:29:30.500Z,7.88
2022-11-05T20:32:03.210Z,7.87
2022-11-05T20:34:31.875Z,7.89
2022-11-05T20:36:59.916Z,7.89
2022-11-05T20:39:28.136Z,7.87
2022-11-05T20:41:57.534Z,7.89
2022-11-05T20:44:25.577Z,7.82
2022-11-05T20:46:53.643Z,7.84
2022-11-05T20:49:25.356Z,7.86
2022-11-05T20:51:54.099Z,7.82
2022-11-05T20:54:22.200Z,7.83
2022-11-05T20:56:50.222Z,7.82
2022-11-05T20:59:19.731Z,7.81
2022-11-05T21:01:47.760Z,7.83
2022-11-05T21:04:15.866Z,7.82
2022-11-05T21:06:43.913Z,7.75
2022-11-05T21:09:13.787Z,7.75
2022-11-05T21:11:55.659Z,7.76
2022-11-05T21:14:24.962Z,7.76
2022-11-05T21:16:53.083Z,7.68
2022-11-05T21:19:23.850Z,7.74
2022-11-05T21:21:51.798Z,7.71
2022-11-05T21:24:19.734Z,7.71
2022-11-05T21:26:49.932Z,7.70
2022-11-05T21:29:18.221Z,7.61
2022-11-05T21:31:48.074Z,7.70
2022-11-05T21:34:16.779Z,7.71
2022-11-05T21:36:44.812Z,7.74
2022-11-05T21:39:13.866Z,7.76
2022-11-05T21:41:42.624Z,7.76
2022-11-05T21:44:10.887Z,7.73
2022-11-05T21:46:38.930Z,7.74
2022-11-05T21:49:08.261Z,7.73
2022-11-05T21:51:53.454Z,7.70
2022-11-05T21:54:38.977Z,7.74
2022-11-05T21:57:26.945Z,7.73
2022-11-05T21:59:57.505Z,7.72
2022-11-05T22:02:28.459Z,7.78
2022-11-05T22:05:00.075Z,7.70
2022-11-05T22:07:30.476Z,7.75
2022-11-05T22:09:58.494Z,7.75
2022-11-05T22:12:26.668Z,7.79
2022-11-05T22:14:55.095Z,7.61
2022-11-05T22:17:23.053Z,7.77
2022-11-05T22:19:51.305Z,7.77
2022-11-05T22:22:20.620Z,7.75
2022-11-05T22:24:48.717Z,7.72
2022-11-05T22:27:20.536Z,7.73
2022-11-05T22:29:48.490Z,7.72
2022-11-05T22:32:17.089Z,7.72
2022-11-05T22:34:45.276Z,7.74
2022-11-05T22:37:13.822Z,7.73
2022-11-05T22:39:43.133Z,7.76
2022-11-05T22:42:11.298Z,7.73
2022-11-05T22:44:39.285Z,7.70
2022-11-05T22:47:07.721Z,7.70
2022-11-05T22:49:35.938Z,7.70
2022-11-05T22:52:04.156Z,7.68
2022-11-05T22:54:37.891Z,7.69
2022-11-05T22:57:08.641Z,7.72
2022-11-05T22:59:36.668Z,7.69
2022-11-05T23:02:09.434Z,7.66
2022-11-05T23:04:39.123Z,7.69
2022-11-05T23:07:27.697Z,7.68
2022-11-05T23:10:14.316Z,7.67
2022-11-05T23:12:44.595Z,7.68
2022-11-05T23:15:34.335Z,7.68
2022-11-05T23:18:19.722Z,7.67
2022-11-05T23:21:05.252Z,7.62
2022-11-05T23:23:50.688Z,7.62
2022-11-05T23:26:41.710Z,7.61
2022-11-05T23:29:11.068Z,7.60
2022-11-05T23:31:56.691Z,7.60
2022-11-05T23:34:24.630Z,7.57
2022-11-05T23:37:10.321Z,7.59
2022-11-05T23:39:42.348Z,7.62
2022-11-05T23:42:28.727Z,7.67
2022-11-05T23:45:15.635Z,7.71
2022-11-05T23:48:01.763Z,7.57
2022-11-05T23:50:34.466Z,7.74
2022-11-05T23:53:06.463Z,7.71
2022-11-05T23:55:34.563Z,7.80
2022-11-05T23:58:02.506Z,7.77
